« Back
NWS Peachtree City, Ga » Text Product » ATL Terminal Aerodrome Forecast


Printer-friendly Version
Current Version              Previous Versions:   1  2  3  4  5  6  7  8  9  

Terminal Aerodrome Forecast

049
FTUS42 KFFC 270332 AAB
TAFATL
TAF AMD
KATL 270332Z 2704/2806 22007KT P6SM SCT050 BKN080
     FM270500 27008KT P6SM FEW030 BKN050
     FM271000 29010KT P6SM BKN030
     FM271300 31010G20KT P6SM BKN020
     FM271700 31012G22KT P6SM BKN035
     FM272000 31012G20KT P6SM SCT040
     FM280000 32008KT P6SM FEW050=

USA.gov is the U.S. government's official web portal to all federal, state and local government web resources and services.